Fredericia, Denmark
Current Conditions -  °F | °C
As of 3:20 PM on Monday 22 Dec 2014 (Local Time) from EKBI Reporting Station
Broken Clouds Broken Clouds  
Wind Chill: 40°   Ceiling: 4800
Heat Index: 46°   Visibility: 6mi
Dew Point: 43°   Wind: 15mph
Humidity: 87%   Direction: 250°WSW
Pressure: 29.56"   Gusts: NA
Location:  55.57°N, 9.75°E
Report Text: EKBI 221420Z 25013KT 9999 FEW020 BKN048 08/06 Q1001
Loading
Personal Weather Stations






























Interactive Weather Map New forecast layout! Learn more

10-Day Weather Forecast

Advertisements
Track Severe Weather on mobile